sensor_id;sensor_type;location;lat;lon;timestamp;pressure;altitude;pressure_sealevel;temperature;humidity
41573;BME280;27286;47.870;19.006;2024-01-16T17:45:22;98918.63;;;-3.10;71.29
41573;BME280;27286;47.870;19.006;2024-01-16T17:47:48;98918.66;;;-3.02;71.29
41573;BME280;27286;47.870;19.006;2024-01-16T17:50:13;98918.66;;;-3.02;71.72
41573;BME280;27286;47.870;19.006;2024-01-16T17:52:39;98917.84;;;-2.96;71.07
41573;BME280;27286;47.870;19.006;2024-01-16T17:55:05;98921.22;;;-2.97;71.98
41573;BME280;27286;47.870;19.006;2024-01-16T17:57:31;98902.50;;;-3.10;71.56
41573;BME280;27286;47.870;19.006;2024-01-16T17:59:57;98915.28;;;-3.01;71.61
41573;BME280;27286;47.870;19.006;2024-01-16T18:02:22;98927.13;;;-3.06;72.50
41573;BME280;27286;47.870;19.006;2024-01-16T18:04:48;98920.34;;;-3.03;72.73
41573;BME280;27286;47.870;19.006;2024-01-16T18:07:14;98931.38;;;-3.04;72.76
41573;BME280;27286;47.870;19.006;2024-01-16T18:09:41;98921.19;;;-3.04;72.01
41573;BME280;27286;47.870;19.006;2024-01-16T18:12:08;98917.00;;;-2.91;71.32
41573;BME280;27286;47.870;19.006;2024-01-16T18:14:36;98912.72;;;-3.01;72.31
41573;BME280;27286;47.870;19.006;2024-01-16T18:17:04;98911.03;;;-2.97;71.89
41573;BME280;27286;47.870;19.006;2024-01-16T18:19:30;98905.97;;;-2.91;71.34
41573;BME280;27286;47.870;19.006;2024-01-16T18:21:59;98923.00;;;-2.81;71.07
41573;BME280;27286;47.870;19.006;2024-01-16T18:24:27;98912.75;;;-2.89;71.02
41573;BME280;27286;47.870;19.006;2024-01-16T18:26:53;98922.06;;;-2.98;71.01
41573;BME280;27286;47.870;19.006;2024-01-16T18:29:19;98928.78;;;-3.11;72.29
41573;BME280;27286;47.870;19.006;2024-01-16T18:31:46;98925.41;;;-3.13;73.25
41573;BME280;27286;47.870;19.006;2024-01-16T18:34:11;98936.34;;;-3.26;73.27
41573;BME280;27286;47.870;19.006;2024-01-16T18:36:48;98927.75;;;-3.45;74.06
41573;BME280;27286;47.870;19.006;2024-01-16T18:39:14;98929.34;;;-3.61;75.53
41573;BME280;27286;47.870;19.006;2024-01-16T18:41:45;98923.97;;;-3.96;78.30
41573;BME280;27286;47.870;19.006;2024-01-16T18:44:10;98925.53;;;-4.10;79.74
41573;BME280;27286;47.870;19.006;2024-01-16T18:46:37;98920.56;;;-3.97;79.99
41573;BME280;27286;47.870;19.006;2024-01-16T18:49:03;98914.81;;;-3.73;78.98
41573;BME280;27286;47.870;19.006;2024-01-16T18:51:30;98915.66;;;-3.74;78.62
41573;BME280;27286;47.870;19.006;2024-01-16T18:53:56;98911.53;;;-3.61;78.19
41573;BME280;27286;47.870;19.006;2024-01-16T18:56:21;98905.56;;;-3.66;77.80
41573;BME280;27286;47.870;19.006;2024-01-16T18:58:47;98910.66;;;-3.68;77.67
41573;BME280;27286;47.870;19.006;2024-01-16T19:01:12;98904.59;;;-3.83;78.33
41573;BME280;27286;47.870;19.006;2024-01-16T19:03:38;98920.69;;;-3.86;78.85
41573;BME280;27286;47.870;19.006;2024-01-16T19:06:05;98912.88;;;-4.04;79.10
41573;BME280;27286;47.870;19.006;2024-01-16T19:08:39;98913.66;;;-4.14;80.27
41573;BME280;27286;47.870;19.006;2024-01-16T19:11:04;98908.47;;;-4.22;80.06
41573;BME280;27286;47.870;19.006;2024-01-16T19:13:31;98915.31;;;-4.18;80.49
41573;BME280;27286;47.870;19.006;2024-01-16T19:15:57;98921.25;;;-4.19;81.26
41573;BME280;27286;47.870;19.006;2024-01-16T19:18:22;98916.16;;;-4.17;80.80
41573;BME280;27286;47.870;19.006;2024-01-16T19:20:47;98912.72;;;-4.21;80.86
41573;BME280;27286;47.870;19.006;2024-01-16T19:23:13;98921.19;;;-4.20;80.99
41573;BME280;27286;47.870;19.006;2024-01-16T19:25:38;98916.91;;;-4.26;81.43
41573;BME280;27286;47.870;19.006;2024-01-16T19:28:04;98913.53;;;-4.27;80.94
41573;BME280;27286;47.870;19.006;2024-01-16T19:30:29;98921.19;;;-4.22;81.00
41573;BME280;27286;47.870;19.006;2024-01-16T19:32:54;98917.81;;;-4.21;79.88
41573;BME280;27286;47.870;19.006;2024-01-16T19:35:21;98917.88;;;-4.16;80.25
41573;BME280;27286;47.870;19.006;2024-01-16T19:37:46;98921.09;;;-4.33;80.67
41573;BME280;27286;47.870;19.006;2024-01-16T19:40:12;98911.84;;;-4.25;82.06
41573;BME280;27286;47.870;19.006;2024-01-16T19:42:42;98898.28;;;-4.27;82.43
41573;BME280;27286;47.870;19.006;2024-01-16T19:45:11;98901.75;;;-4.18;80.62
41573;BME280;27286;47.870;19.006;2024-01-16T19:47:38;98910.28;;;-4.09;79.57
41573;BME280;27286;47.870;19.006;2024-01-16T19:50:05;98905.84;;;-4.33;80.46
41573;BME280;27286;47.870;19.006;2024-01-16T19:52:35;98914.34;;;-4.29;80.55
41573;BME280;27286;47.870;19.006;2024-01-16T19:55:01;98914.38;;;-4.28;82.73
41573;BME280;27286;47.870;19.006;2024-01-16T19:57:31;98907.47;;;-4.39;83.63
41573;BME280;27286;47.870;19.006;2024-01-16T19:59:56;98910.97;;;-4.30;82.83
41573;BME280;27286;47.870;19.006;2024-01-16T20:02:22;98911.63;;;-4.49;83.70
41573;BME280;27286;47.870;19.006;2024-01-16T20:04:49;98909.66;;;-4.71;84.98
41573;BME280;27286;47.870;19.006;2024-01-16T20:07:14;98911.28;;;-4.79;85.25
41573;BME280;27286;47.870;19.006;2024-01-16T20:09:39;98892.47;;;-4.97;85.22
41573;BME280;27286;47.870;19.006;2024-01-16T20:12:05;98907.88;;;-4.81;84.90
41573;BME280;27286;47.870;19.006;2024-01-16T20:14:31;98901.91;;;-4.87;84.36
41573;BME280;27286;47.870;19.006;2024-01-16T20:16:59;98899.28;;;-4.93;84.69
41573;BME280;27286;47.870;19.006;2024-01-16T20:19:26;98899.28;;;-4.93;83.82
41573;BME280;27286;47.870;19.006;2024-01-16T20:21:51;98910.19;;;-5.01;84.14
41573;BME280;27286;47.870;19.006;2024-01-16T20:24:17;98913.44;;;-5.11;84.89
41573;BME280;27286;47.870;19.006;2024-01-16T20:26:43;98914.19;;;-5.19;84.56
41573;BME280;27286;47.870;19.006;2024-01-16T20:29:08;98920.78;;;-5.30;85.05
41573;BME280;27286;47.870;19.006;2024-01-16T20:31:35;98927.41;;;-5.41;85.73
41573;BME280;27286;47.870;19.006;2024-01-16T20:34:01;98929.91;;;-5.44;85.37
41573;BME280;27286;47.870;19.006;2024-01-16T20:36:27;98918.84;;;-5.49;85.80
41573;BME280;27286;47.870;19.006;2024-01-16T20:38:52;98939.72;;;-5.65;88.48
41573;BME280;27286;47.870;19.006;2024-01-16T20:41:18;98939.94;;;-5.53;88.17
